Time;durP1;ratioP1;P1;durP2;ratioP2;P2;SDS_P1;SDS_P2;PMS_P1;PMS_P2;Temp;Humidity;BMP_temperature;BMP_pressure;BME280_temperature;BME280_humidity;BME280_pressure;Samples;Min_cycle;Max_cycle;Signal;HPM_P1;HPM_P2
2023/09/22 00:02:03;;;;;;;38.75;25.38;;;13.70;99.90;;;;;;5046239;28;38693;-84
2023/09/22 00:04:30;;;;;;;42.88;26.52;;;13.60;99.90;;;;;;5054121;28;47117;-85
2023/09/22 00:06:56;;;;;;;39.90;26.23;;;13.60;99.90;;;;;;5047826;28;36474;-82
2023/09/22 00:09:23;;;;;;;40.53;26.10;;;13.60;99.90;;;;;;5053332;28;38876;-84
2023/09/22 00:11:49;;;;;;;41.95;26.75;;;13.50;99.90;;;;;;5039906;28;37586;-85
2023/09/22 00:14:15;;;;;;;37.70;25.65;;;13.50;99.90;;;;;;5059301;28;37096;-85
2023/09/22 00:16:41;;;;;;;36.90;23.88;;;13.50;99.90;;;;;;5050131;28;37579;-84
2023/09/22 00:19:07;;;;;;;35.70;23.05;;;13.40;99.90;;;;;;5048775;28;38537;-84
2023/09/22 00:21:34;;;;;;;42.70;25.30;;;13.40;99.90;;;;;;5045987;28;37624;-85
2023/09/22 00:24:01;;;;;;;39.65;24.65;;;13.30;99.90;;;;;;5056988;28;37146;-84
2023/09/22 00:26:27;;;;;;;37.35;23.73;;;13.30;99.90;;;;;;5059740;28;48581;-85
2023/09/22 00:28:53;;;;;;;40.05;25.15;;;13.30;99.90;;;;;;5053750;28;38820;-84
2023/09/22 00:31:19;;;;;;;38.08;25.63;;;13.30;99.90;;;;;;5045222;28;37245;-84
2023/09/22 00:33:45;;;;;;;42.55;27.65;;;13.20;99.90;;;;;;5041800;28;37093;-85
2023/09/22 00:36:14;;;;;;;38.97;26.05;;;13.20;99.90;;;;;;5043793;28;37656;-85
2023/09/22 00:38:41;;;;;;;55.83;30.58;;;13.20;99.90;;;;;;5049396;28;37661;-84
2023/09/22 00:41:07;;;;;;;55.40;30.52;;;13.20;99.90;;;;;;5053655;28;39198;-84
2023/09/22 00:43:33;;;;;;;42.78;27.77;;;13.20;99.90;;;;;;5053590;28;37365;-84
2023/09/22 00:46:00;;;;;;;48.20;28.63;;;13.20;99.90;;;;;;5049589;28;37187;-83
2023/09/22 00:48:34;;;;;;;47.10;28.58;;;13.10;99.90;;;;;;5059655;28;39660;-84
2023/09/22 00:51:01;;;;;;;48.92;27.13;;;13.10;99.90;;;;;;5046365;28;37438;-83
2023/09/22 00:53:33;;;;;;;42.72;26.35;;;13.10;99.90;;;;;;5051930;28;36781;-85
2023/09/22 00:55:59;;;;;;;39.20;24.40;;;13.10;99.90;;;;;;5044355;28;36803;-84
2023/09/22 00:58:25;;;;;;;36.95;23.00;;;13.10;99.90;;;;;;5049031;28;37830;-82
2023/09/22 01:03:29;;;;;;;37.38;21.95;;;13.10;99.90;;;;;;5310574;22;20048;-81
2023/09/22 01:05:56;;;;;;;35.70;21.88;;;13.10;99.90;;;;;;5090099;28;38005;-80
2023/09/22 01:08:22;;;;;;;35.53;21.10;;;13.10;99.90;;;;;;5094808;28;38568;-80
2023/09/22 01:10:48;;;;;;;31.48;20.10;;;13.20;99.90;;;;;;5078443;28;38100;-80
2023/09/22 01:13:14;;;;;;;30.05;19.73;;;13.20;99.90;;;;;;5061945;28;37533;-80
2023/09/22 01:15:42;;;;;;;27.83;18.08;;;13.20;99.90;;;;;;5084134;28;38421;-81
2023/09/22 01:18:10;;;;;;;25.60;16.75;;;13.20;99.90;;;;;;5070979;28;37967;-80
2023/09/22 01:20:43;;;;;;;26.95;16.52;;;13.20;99.90;;;;;;5073770;28;37660;-80
2023/09/22 01:23:13;;;;;;;25.40;16.48;;;13.20;99.90;;;;;;5089023;28;39350;-80
2023/09/22 01:25:40;;;;;;;24.13;15.93;;;13.20;99.90;;;;;;5066519;28;37633;-79
2023/09/22 01:28:07;;;;;;;30.05;15.07;;;13.30;99.90;;;;;;5096164;28;38675;-79
2023/09/22 01:30:35;;;;;;;22.55;14.40;;;13.30;99.90;;;;;;5094510;28;38308;-79
2023/09/22 01:33:03;;;;;;;26.80;15.93;;;13.30;99.90;;;;;;5074157;28;37101;-78
2023/09/22 01:35:33;;;;;;;26.60;15.40;;;13.30;99.90;;;;;;5068013;28;38176;-79
2023/09/22 01:38:12;;;;;;;21.73;14.57;;;13.40;99.90;;;;;;5072129;28;38454;-79
2023/09/22 01:40:42;;;;;;;31.08;16.77;;;13.40;99.90;;;;;;5066099;28;47342;-79
2023/09/22 01:43:08;;;;;;;22.25;13.93;;;13.30;99.90;;;;;;5066977;28;38167;-79
2023/09/22 01:45:34;;;;;;;19.15;13.55;;;13.30;99.90;;;;;;5058106;28;37259;-79
2023/09/22 01:48:01;;;;;;;22.33;13.30;;;13.30;99.90;;;;;;5089621;28;38840;-79
2023/09/22 01:50:27;;;;;;;23.05;13.88;;;13.20;99.90;;;;;;5083944;28;48438;-79
2023/09/22 01:52:53;;;;;;;22.73;12.60;;;13.20;99.90;;;;;;5074642;28;37294;-79
2023/09/22 01:55:20;;;;;;;19.25;12.82;;;13.20;99.90;;;;;;5076520;28;38895;-79
2023/09/22 01:57:49;;;;;;;25.70;14.38;;;13.30;99.90;;;;;;5065200;28;38772;-79
2023/09/22 02:00:15;;;;;;;20.85;11.57;;;13.30;99.90;;;;;;5088404;28;38638;-79
2023/09/22 02:02:43;;;;;;;21.25;12.52;;;13.20;99.90;;;;;;5083569;28;39049;-79
2023/09/22 02:05:11;;;;;;;21.88;12.60;;;13.20;99.90;;;;;;5085507;28;38249;-79
2023/09/22 02:07:38;;;;;;;23.23;13.30;;;13.20;99.90;;;;;;5072668;28;37849;-79
2023/09/22 02:10:05;;;;;;;21.10;12.70;;;13.20;99.90;;;;;;5081373;28;39358;-79
2023/09/22 02:12:31;;;;;;;26.95;14.45;;;13.20;99.90;;;;;;5063037;28;37223;-79
2023/09/22 02:14:58;;;;;;;23.98;14.70;;;13.20;99.90;;;;;;5056061;28;37597;-79
2023/09/22 02:17:25;;;;;;;26.55;14.80;;;13.30;99.90;;;;;;5059979;28;38348;-79
2023/09/22 02:19:51;;;;;;;23.30;15.75;;;13.20;99.90;;;;;;5079529;28;37817;-79
2023/09/22 02:22:18;;;;;;;27.40;17.35;;;13.30;99.90;;;;;;5083002;28;37850;-79
2023/09/22 02:24:44;;;;;;;28.38;17.20;;;13.30;99.90;;;;;;5068325;28;36516;-79
2023/09/22 02:27:10;;;;;;;42.72;20.58;;;13.30;99.90;;;;;;5089002;28;39545;-79
2023/09/22 02:29:36;;;;;;;40.58;21.60;;;13.30;99.90;;;;;;5082625;28;39205;-79
2023/09/22 02:32:02;;;;;;;39.70;21.17;;;13.30;99.90;;;;;;5070608;27;37510;-79
2023/09/22 02:34:28;;;;;;;31.45;20.42;;;13.30;99.90;;;;;;5083919;28;40925;-79
2023/09/22 02:36:55;;;;;;;38.22;21.35;;;13.30;99.90;;;;;;5065063;28;38082;-80
2023/09/22 02:39:21;;;;;;;43.90;21.40;;;13.30;99.90;;;;;;5069576;28;37791;-79
2023/09/22 02:41:47;;;;;;;42.38;20.50;;;13.30;99.90;;;;;;5073875;28;37349;-79
2023/09/22 02:44:13;;;;;;;40.15;20.55;;;13.30;99.90;;;;;;5069981;28;39554;-80
2023/09/22 02:46:40;;;;;;;30.70;18.00;;;13.30;99.90;;;;;;5063962;28;38815;-79
2023/09/22 02:49:06;;;;;;;31.38;17.10;;;13.30;99.90;;;;;;5074961;28;37529;-78
2023/09/22 02:51:32;;;;;;;38.47;18.13;;;13.40;99.90;;;;;;5079787;28;37645;-79
2023/09/22 02:53:58;;;;;;;38.63;18.13;;;13.40;99.90;;;;;;5078903;28;37826;-79
2023/09/22 02:56:24;;;;;;;33.97;17.38;;;13.40;99.90;;;;;;5083723;28;38680;-79
2023/09/22 02:58:50;;;;;;;32.25;15.20;;;13.40;99.90;;;;;;5064594;28;39690;-79
2023/09/22 03:01:16;;;;;;;28.48;15.60;;;13.40;99.90;;;;;;5085281;28;38276;-79
2023/09/22 03:03:42;;;;;;;33.90;15.32;;;13.40;99.90;;;;;;5073437;28;36718;-78
2023/09/22 03:06:12;;;;;;;29.40;14.65;;;13.50;99.90;;;;;;5076198;28;37603;-79
2023/09/22 03:08:39;;;;;;;27.40;14.52;;;13.50;99.90;;;;;;5058996;28;37520;-80
2023/09/22 03:11:05;;;;;;;24.20;12.73;;;13.50;99.90;;;;;;5089374;28;37781;-78
2023/09/22 03:13:32;;;;;;;22.65;12.18;;;13.50;99.90;;;;;;5068261;28;37081;-81
2023/09/22 03:16:00;;;;;;;24.48;12.45;;;13.60;99.90;;;;;;5081819;28;40616;-79
2023/09/22 03:18:28;;;;;;;22.70;11.25;;;13.60;99.90;;;;;;5068760;28;37599;-78
2023/09/22 03:20:54;;;;;;;18.15;10.70;;;13.70;99.90;;;;;;5069030;28;37074;-79
2023/09/22 03:23:20;;;;;;;22.33;11.05;;;13.70;99.90;;;;;;5085811;28;37275;-79
2023/09/22 03:25:47;;;;;;;17.02;10.35;;;13.70;99.90;;;;;;5073900;28;37848;-78
2023/09/22 03:28:13;;;;;;;18.65;11.20;;;13.70;99.90;;;;;;5060732;28;37374;-79
2023/09/22 03:30:40;;;;;;;21.02;11.65;;;13.80;99.90;;;;;;5075643;28;38407;-79
2023/09/22 03:33:06;;;;;;;28.10;13.52;;;13.80;99.90;;;;;;5086502;28;37707;-79
2023/09/22 03:35:32;;;;;;;19.58;12.60;;;13.80;99.90;;;;;;5081347;28;39012;-81
2023/09/22 03:37:58;;;;;;;25.33;12.18;;;13.90;99.90;;;;;;5070294;28;37429;-79
2023/09/22 03:40:40;;;;;;;25.23;12.57;;;13.90;99.90;;;;;;5073699;28;36869;-79
2023/09/22 03:43:11;;;;;;;19.00;11.55;;;13.90;99.90;;;;;;5075229;28;37461;-78
2023/09/22 03:45:38;;;;;;;20.10;11.65;;;13.90;99.90;;;;;;5085536;28;38878;-78
2023/09/22 03:48:04;;;;;;;18.13;12.73;;;13.90;99.90;;;;;;5069421;28;37355;-78
2023/09/22 03:50:31;;;;;;;21.55;13.32;;;13.90;99.90;;;;;;5088632;28;38081;-79
2023/09/22 03:52:57;;;;;;;21.38;13.10;;;13.90;99.90;;;;;;5089446;27;38521;-79
2023/09/22 03:55:23;;;;;;;22.70;13.85;;;14.00;99.90;;;;;;5088571;28;38830;-77
2023/09/22 03:57:49;;;;;;;18.45;13.82;;;14.00;99.90;;;;;;5061250;28;37636;-79
2023/09/22 04:00:19;;;;;;;21.10;14.23;;;13.90;99.90;;;;;;5066477;28;38707;-77
2023/09/22 04:02:46;;;;;;;19.02;13.77;;;13.90;99.90;;;;;;5057731;28;37081;-78
2023/09/22 04:05:12;;;;;;;21.23;13.38;;;13.90;99.90;;;;;;5071528;28;39636;-79
2023/09/22 04:07:39;;;;;;;16.92;12.82;;;13.90;99.90;;;;;;5066620;28;37902;-79
2023/09/22 04:10:08;;;;;;;23.33;14.73;;;13.90;99.90;;;;;;5074852;28;37221;-79
2023/09/22 04:12:37;;;;;;;24.05;14.45;;;13.90;99.90;;;;;;5068538;28;36528;-80
2023/09/22 04:15:04;;;;;;;21.92;13.52;;;13.90;99.90;;;;;;5065994;28;38256;-79
2023/09/22 04:17:35;;;;;;;21.77;14.50;;;13.90;99.90;;;;;;5086558;28;47179;-79
2023/09/22 04:20:06;;;;;;;19.77;13.27;;;13.90;99.90;;;;;;5089921;28;38332;-78
2023/09/22 04:22:32;;;;;;;17.45;12.50;;;13.90;99.90;;;;;;5090371;28;48646;-77
2023/09/22 04:25:02;;;;;;;19.42;11.95;;;13.90;99.90;;;;;;5077910;28;37687;-77
2023/09/22 04:27:32;;;;;;;15.23;12.02;;;13.90;99.90;;;;;;5093712;28;38212;-78
2023/09/22 04:30:00;;;;;;;21.77;12.80;;;13.90;99.90;;;;;;5080058;28;38747;-78
2023/09/22 04:32:33;;;;;;;15.45;11.02;;;13.90;99.90;;;;;;5087013;28;38770;-79
2023/09/22 04:35:00;;;;;;;16.30;11.23;;;13.90;99.90;;;;;;5072547;28;38052;-79
2023/09/22 04:37:26;;;;;;;12.45;11.10;;;14.00;99.90;;;;;;5090210;27;38065;-79
2023/09/22 04:39:54;;;;;;;16.60;10.82;;;14.00;99.90;;;;;;5069247;28;38574;-79
2023/09/22 04:42:22;;;;;;;10.88;9.77;;;14.00;99.90;;;;;;5067330;28;37346;-78
2023/09/22 04:44:55;;;;;;;17.35;9.90;;;13.90;99.90;;;;;;5069473;28;38826;-78
2023/09/22 04:47:21;;;;;;;10.90;8.02;;;13.80;99.90;;;;;;5077342;28;39414;-78
2023/09/22 04:49:47;;;;;;;11.13;8.68;;;13.80;99.90;;;;;;5061660;28;37360;-78
2023/09/22 04:52:13;;;;;;;11.40;8.27;;;13.80;99.90;;;;;;5082526;28;37010;-78
2023/09/22 04:54:40;;;;;;;10.45;8.23;;;13.80;99.90;;;;;;5081463;28;39535;-78
2023/09/22 04:57:06;;;;;;;12.95;6.90;;;13.80;99.90;;;;;;5072185;28;38495;-77
2023/09/22 04:59:32;;;;;;;8.10;6.70;;;13.80;99.90;;;;;;5071521;28;38072;-77
2023/09/22 05:01:59;;;;;;;11.05;6.20;;;13.80;99.90;;;;;;5068550;28;37418;-77
2023/09/22 05:04:25;;;;;;;7.68;5.10;;;13.70;99.90;;;;;;5065294;28;37676;-79
2023/09/22 05:06:53;;;;;;;7.95;4.78;;;13.70;99.90;;;;;;5061400;28;20571;-78
2023/09/22 05:09:19;;;;;;;8.02;4.28;;;13.70;99.90;;;;;;5064835;28;37817;-79
2023/09/22 05:11:45;;;;;;;8.73;4.65;;;13.60;99.90;;;;;;5079008;28;36245;-79
2023/09/22 05:14:11;;;;;;;6.88;4.15;;;13.60;99.90;;;;;;5073340;28;38032;-79
2023/09/22 05:16:37;;;;;;;10.95;4.90;;;13.70;99.90;;;;;;5078878;28;38310;-81
2023/09/22 05:19:03;;;;;;;7.55;4.75;;;13.70;99.90;;;;;;5079738;28;37782;-79
2023/09/22 05:21:30;;;;;;;7.57;4.15;;;13.70;99.90;;;;;;5058396;28;38154;-78
2023/09/22 05:24:01;;;;;;;10.45;4.25;;;13.80;99.90;;;;;;5068232;28;38607;-80
2023/09/22 05:26:27;;;;;;;6.82;3.50;;;13.80;99.90;;;;;;5077805;28;47763;-81
2023/09/22 05:28:53;;;;;;;8.77;3.40;;;13.70;99.90;;;;;;5079405;28;37144;-80
2023/09/22 05:31:19;;;;;;;7.47;3.00;;;13.70;99.90;;;;;;5070678;28;37898;-80
2023/09/22 05:33:45;;;;;;;5.95;2.40;;;13.70;99.90;;;;;;5063267;28;37839;-80
2023/09/22 05:36:11;;;;;;;5.55;2.60;;;13.70;99.90;;;;;;5069122;28;38159;-79
2023/09/22 05:38:37;;;;;;;6.65;3.25;;;13.70;99.90;;;;;;5079851;28;37876;-79
2023/09/22 05:41:04;;;;;;;6.63;3.00;;;13.60;99.90;;;;;;5082930;28;37280;-78
2023/09/22 05:43:32;;;;;;;4.53;2.55;;;13.60;99.90;;;;;;5063794;28;38575;-79
2023/09/22 05:45:58;;;;;;;5.28;3.05;;;13.60;99.90;;;;;;5066263;28;37231;-78
2023/09/22 05:48:24;;;;;;;5.18;2.80;;;13.60;99.90;;;;;;5083205;28;38004;-78
2023/09/22 05:50:59;;;;;;;5.15;2.97;;;13.70;99.90;;;;;;5066079;28;37400;-77
2023/09/22 05:53:26;;;;;;;8.52;2.90;;;13.70;99.90;;;;;;5052516;28;37745;-77
2023/09/22 05:56:09;;;;;;;7.40;2.90;;;13.70;99.90;;;;;;5068317;28;38653;-77
2023/09/22 05:58:36;;;;;;;;;;;13.60;99.90;;;;;;5081152;28;48877;-77
2023/09/22 06:01:13;;;;;;;3.95;2.00;;;13.50;99.90;;;;;;5082830;28;38329;-77
2023/09/22 06:03:41;;;;;;;6.28;2.22;;;13.40;99.90;;;;;;5084467;27;39261;-77
2023/09/22 06:06:12;;;;;;;3.67;1.88;;;13.40;99.90;;;;;;5090521;27;38083;-76
2023/09/22 06:08:41;;;;;;;4.53;1.83;;;13.40;99.90;;;;;;5060137;28;36613;-76
2023/09/22 06:11:08;;;;;;;6.78;2.17;;;13.30;99.90;;;;;;5077498;28;36217;-75
2023/09/22 06:13:34;;;;;;;6.38;2.03;;;13.30;99.90;;;;;;5066716;28;39254;-77
2023/09/22 06:16:01;;;;;;;3.20;1.60;;;13.30;99.90;;;;;;5086324;28;39136;-77
2023/09/22 06:18:27;;;;;;;3.30;1.77;;;13.30;99.90;;;;;;5089603;28;48952;-74
2023/09/22 06:20:57;;;;;;;7.50;2.63;;;13.30;99.90;;;;;;5096987;28;36116;-74
2023/09/22 06:23:24;;;;;;;6.05;1.80;;;13.20;99.90;;;;;;5071210;28;37685;-74
2023/09/22 06:25:51;;;;;;;4.07;1.60;;;13.20;99.90;;;;;;5083512;28;37992;-76
2023/09/22 06:28:18;;;;;;;5.40;1.88;;;13.20;99.90;;;;;;5072810;28;37130;-76
2023/09/22 06:30:46;;;;;;;5.97;1.75;;;13.20;99.90;;;;;;5065478;28;36423;-76
2023/09/22 06:33:16;;;;;;;5.82;2.22;;;13.20;99.90;;;;;;5074571;28;38945;-76
2023/09/22 06:35:43;;;;;;;3.45;1.88;;;13.20;99.90;;;;;;5094504;28;38404;-76
2023/09/22 06:38:11;;;;;;;3.03;1.83;;;13.20;99.90;;;;;;5080440;28;37693;-78
2023/09/22 06:40:37;;;;;;;7.03;2.05;;;13.20;99.90;;;;;;5060174;28;37039;-77
2023/09/22 06:43:05;;;;;;;3.63;1.88;;;13.30;99.90;;;;;;5090112;28;38952;-79
2023/09/22 06:45:34;;;;;;;4.03;1.50;;;13.30;99.90;;;;;;5084284;28;39460;-79
2023/09/22 06:48:00;;;;;;;3.08;1.70;;;13.30;99.90;;;;;;5058312;28;39757;-77
2023/09/22 06:50:27;;;;;;;2.10;1.52;;;13.40;99.90;;;;;;5063612;27;35416;-78
2023/09/22 06:52:53;;;;;;;3.13;1.60;;;13.40;99.90;;;;;;5082727;28;39550;-78
2023/09/22 06:55:20;;;;;;;2.85;1.70;;;13.50;99.90;;;;;;5063571;28;37289;-78
2023/09/22 06:57:46;;;;;;;3.65;1.50;;;13.70;99.90;;;;;;5077531;28;38118;-79
2023/09/22 07:00:18;;;;;;;3.55;1.30;;;13.70;99.90;;;;;;5083676;28;38562;-77
2023/09/22 07:02:47;;;;;;;4.78;1.40;;;13.80;99.90;;;;;;5054071;28;38123;-77
2023/09/22 07:05:14;;;;;;;3.80;1.02;;;13.80;99.90;;;;;;5082330;28;37767;-77
2023/09/22 07:07:41;;;;;;;2.72;1.00;;;13.80;99.90;;;;;;5069604;28;36912;-76
2023/09/22 07:10:10;;;;;;;2.75;1.17;;;13.70;99.90;;;;;;5088837;28;37414;-78
2023/09/22 07:12:37;;;;;;;1.50;0.90;;;13.70;99.90;;;;;;5070475;28;38123;-77
2023/09/22 07:15:04;;;;;;;1.88;1.13;;;13.70;99.90;;;;;;5062744;28;37457;-77
2023/09/22 07:17:34;;;;;;;3.58;1.33;;;13.70;99.90;;;;;;5081420;28;37633;-77
2023/09/22 07:20:01;;;;;;;4.20;1.27;;;13.80;99.90;;;;;;5058369;28;36067;-77
2023/09/22 07:22:30;;;;;;;2.47;1.30;;;13.80;99.90;;;;;;5068447;28;38116;-77
2023/09/22 07:24:57;;;;;;;3.00;1.30;;;13.90;99.90;;;;;;5086952;28;38348;-77
2023/09/22 07:27:26;;;;;;;3.55;1.48;;;14.00;99.90;;;;;;5069800;28;37128;-76
2023/09/22 07:29:52;;;;;;;3.58;1.73;;;14.00;99.90;;;;;;5087851;28;35830;-77
2023/09/22 07:32:19;;;;;;;3.45;1.30;;;14.00;99.90;;;;;;5085123;28;39882;-77
2023/09/22 07:34:46;;;;;;;3.80;1.33;;;14.00;99.90;;;;;;5097178;28;38195;-77
2023/09/22 07:37:13;;;;;;;3.03;1.55;;;14.10;99.90;;;;;;5063617;28;35482;-78
2023/09/22 07:39:39;;;;;;;3.35;1.73;;;14.20;99.90;;;;;;5069222;28;36101;-77
2023/09/22 07:42:06;;;;;;;2.15;1.27;;;14.10;99.90;;;;;;5069613;28;39522;-78
2023/09/22 07:44:33;;;;;;;3.80;1.25;;;14.20;99.90;;;;;;5057665;28;37732;-77
2023/09/22 07:47:00;;;;;;;4.47;1.80;;;14.30;99.90;;;;;;5058960;28;36997;-78
2023/09/22 07:49:27;;;;;;;2.22;1.65;;;14.30;99.90;;;;;;5056559;28;37441;-77
2023/09/22 07:51:53;;;;;;;3.15;1.30;;;14.40;99.90;;;;;;5061353;28;38036;-76
2023/09/22 07:54:24;;;;;;;4.93;1.73;;;14.30;99.90;;;;;;5071256;28;38298;-76
2023/09/22 07:56:50;;;;;;;2.35;1.80;;;14.30;99.90;;;;;;5057976;28;38395;-75
2023/09/22 07:59:17;;;;;;;1.90;1.40;;;14.30;99.90;;;;;;5063865;28;36550;-75
2023/09/22 08:01:43;;;;;;;7.18;1.90;;;14.30;99.90;;;;;;5081686;28;38442;-77
2023/09/22 08:04:16;;;;;;;5.47;1.73;;;14.30;99.90;;;;;;5076767;27;37324;-77
2023/09/22 08:06:43;;;;;;;6.43;1.40;;;14.20;99.90;;;;;;5067729;28;38153;-76
2023/09/22 08:09:12;;;;;;;4.90;1.95;;;14.20;99.90;;;;;;5086969;28;38495;-77
2023/09/22 08:11:41;;;;;;;5.78;1.75;;;14.20;99.90;;;;;;5076732;28;39572;-74
2023/09/22 08:14:07;;;;;;;2.40;1.33;;;14.20;99.90;;;;;;5054466;28;37724;-76
2023/09/22 08:16:35;;;;;;;3.42;1.92;;;14.20;99.90;;;;;;5089828;28;38144;-77
2023/09/22 08:19:01;;;;;;;4.88;1.80;;;14.20;99.90;;;;;;5068876;28;36298;-76
2023/09/22 08:21:27;;;;;;;4.40;1.77;;;14.20;99.90;;;;;;5073044;28;47393;-74
2023/09/22 08:23:53;;;;;;;3.58;1.73;;;14.40;99.90;;;;;;5087549;28;39128;-75
2023/09/22 08:26:19;;;;;;;4.07;1.05;;;14.50;99.90;;;;;;5079200;28;37901;-75
2023/09/22 08:28:50;;;;;;;2.75;1.10;;;14.40;99.90;;;;;;5071806;28;37040;-75
2023/09/22 08:31:16;;;;;;;1.45;1.20;;;14.50;99.90;;;;;;5092943;27;38620;-73
2023/09/22 08:33:42;;;;;;;3.90;1.35;;;14.60;99.90;;;;;;5073182;28;37167;-77
2023/09/22 08:36:08;;;;;;;5.18;1.60;;;14.60;99.90;;;;;;5073982;28;36828;-74
2023/09/22 08:38:34;;;;;;;3.10;1.45;;;14.60;99.90;;;;;;5090919;28;37140;-75
2023/09/22 08:41:05;;;;;;;2.63;1.80;;;14.60;99.90;;;;;;5097457;28;38277;-74
2023/09/22 08:43:32;;;;;;;3.55;1.75;;;14.60;99.90;;;;;;5088702;27;48636;-74
2023/09/22 08:46:01;;;;;;;5.47;2.38;;;14.60;99.90;;;;;;5087835;28;38899;-74
2023/09/22 08:48:28;;;;;;;3.17;1.73;;;14.60;99.90;;;;;;5073198;28;47379;-75
2023/09/22 08:50:54;;;;;;;6.57;1.67;;;14.50;99.90;;;;;;5068854;28;38103;-74
2023/09/22 08:53:21;;;;;;;4.10;1.65;;;14.60;99.90;;;;;;5078242;28;38202;-75
2023/09/22 08:55:50;;;;;;;3.90;1.80;;;14.60;99.90;;;;;;5071890;28;36833;-77
2023/09/22 08:58:18;;;;;;;3.00;1.38;;;14.70;99.90;;;;;;5079727;28;36868;-74
2023/09/22 09:00:50;;;;;;;7.68;1.88;;;14.80;99.90;;;;;;5074745;28;38184;-76
2023/09/22 09:03:18;;;;;;;;;;;14.90;99.90;;;;;;5079280;28;38522;-76
2023/09/22 09:05:44;;;;;;;4.40;1.60;;;15.10;99.90;;;;;;5072636;28;36982;-75
2023/09/22 09:08:21;;;;;;;2.90;1.52;;;15.20;99.90;;;;;;5066243;28;37193;-73
2023/09/22 09:10:48;;;;;;;2.92;1.63;;;15.00;99.90;;;;;;5062477;28;38099;-73
2023/09/22 09:13:17;;;;;;;2.58;1.83;;;15.00;99.90;;;;;;5067048;27;40200;-73
2023/09/22 09:15:49;;;;;;;1.45;1.35;;;15.20;99.90;;;;;;5064805;28;37024;-73
2023/09/22 09:18:16;;;;;;;2.50;1.27;;;15.30;99.90;;;;;;5070258;28;36179;-75
2023/09/22 09:20:44;;;;;;;4.50;1.25;;;15.10;99.90;;;;;;5085125;28;38356;-74
2023/09/22 09:23:18;;;;;;;2.13;1.15;;;15.10;99.90;;;;;;5087554;28;39456;-74
2023/09/22 09:25:49;;;;;;;7.65;1.40;;;15.10;99.90;;;;;;5091742;27;37030;-74
2023/09/22 09:28:17;;;;;;;2.92;1.13;;;15.40;99.90;;;;;;5075351;27;38052;-73
2023/09/22 09:30:58;;;;;;;5.75;1.33;;;15.60;99.90;;;;;;5079339;28;39185;-74
2023/09/22 09:33:25;;;;;;;1.95;1.00;;;15.60;99.90;;;;;;5084053;28;39473;-73
2023/09/22 09:35:52;;;;;;;3.63;1.27;;;15.60;99.90;;;;;;5074512;28;37444;-74
2023/09/22 09:38:20;;;;;;;8.77;1.45;;;15.70;99.90;;;;;;5081068;28;36739;-74
2023/09/22 09:40:46;;;;;;;2.42;0.90;;;16.00;99.90;;;;;;5087213;27;39399;-73
2023/09/22 09:43:14;;;;;;;4.00;1.10;;;15.90;99.90;;;;;;5067744;28;37955;-73
2023/09/22 09:45:46;;;;;;;2.90;0.93;;;16.10;99.90;;;;;;5065900;28;36927;-73
2023/09/22 09:48:16;;;;;;;4.63;1.00;;;16.20;99.90;;;;;;5071979;28;36022;-73
2023/09/22 09:50:47;;;;;;;3.95;0.98;;;16.20;99.90;;;;;;5084121;28;40409;-73
2023/09/22 09:53:37;;;;;;;3.85;0.90;;;16.00;99.90;;;;;;5076810;28;38763;-73
2023/09/22 09:56:05;;;;;;;3.53;1.05;;;15.90;99.90;;;;;;5067735;28;36888;-75
2023/09/22 09:58:35;;;;;;;4.65;0.90;;;16.00;99.90;;;;;;5064135;28;35960;-75
2023/09/22 10:01:06;;;;;;;3.63;1.23;;;15.90;99.90;;;;;;5065734;28;37646;-74
2023/09/22 10:03:35;;;;;;;4.50;0.90;;;15.80;99.90;;;;;;5086365;28;46570;-74
2023/09/22 10:06:03;;;;;;;2.10;0.90;;;15.80;99.90;;;;;;5078269;28;38099;-74
2023/09/22 10:08:30;;;;;;;3.38;1.20;;;15.90;99.90;;;;;;5076399;28;36216;-74
2023/09/22 10:11:01;;;;;;;2.33;0.80;;;16.00;99.90;;;;;;5083271;28;39332;-74
2023/09/22 10:13:27;;;;;;;4.35;0.95;;;15.90;99.90;;;;;;5061297;28;39571;-78
2023/09/22 10:15:58;;;;;;;2.13;0.90;;;16.00;99.90;;;;;;5075062;28;37081;-74
2023/09/22 10:18:46;;;;;;;3.63;1.13;;;16.00;99.90;;;;;;5082387;28;37913;-73
2023/09/22 10:21:36;;;;;;;3.90;0.93;;;16.10;99.90;;;;;;5073742;28;40410;-74
2023/09/22 10:24:18;;;;;;;4.32;0.95;;;16.50;99.90;;;;;;5066459;28;37448;-75
2023/09/22 10:26:56;;;;;;;4.15;1.10;;;16.50;99.90;;;;;;5060801;28;39290;-75
2023/09/22 10:29:37;;;;;;;2.92;0.90;;;16.60;99.90;;;;;;5081123;28;36185;-75
2023/09/22 10:32:18;;;;;;;3.60;1.05;;;16.50;99.90;;;;;;5065239;28;39051;-74
2023/09/22 10:34:49;;;;;;;4.30;0.90;;;16.40;99.90;;;;;;5095558;28;37701;-76
2023/09/22 10:37:17;;;;;;;1.27;0.85;;;16.50;99.90;;;;;;5084198;28;38146;-75
2023/09/22 10:39:54;;;;;;;4.82;0.80;;;16.50;99.90;;;;;;5088599;28;37476;-74
2023/09/22 10:42:22;;;;;;;3.53;0.88;;;16.50;99.90;;;;;;5087022;28;38986;-75
2023/09/22 10:44:59;;;;;;;2.70;0.88;;;16.50;99.90;;;;;;5065223;28;37502;-76
2023/09/22 10:47:57;;;;;;;4.72;0.73;;;16.80;99.90;;;;;;5076484;28;37887;-76
2023/09/22 10:50:31;;;;;;;3.72;0.88;;;17.30;99.90;;;;;;5063737;28;36208;-77
2023/09/22 10:53:05;;;;;;;2.25;0.95;;;17.10;99.90;;;;;;5081287;28;40468;-82
2023/09/22 10:55:42;;;;;;;3.95;1.30;;;16.90;99.90;;;;;;5062379;28;47272;-80
2023/09/22 10:58:18;;;;;;;2.03;1.42;;;16.90;99.90;;;;;;5073243;28;37900;-78
2023/09/22 11:00:58;;;;;;;3.58;0.95;;;16.80;99.90;;;;;;5068232;28;36497;-76
2023/09/22 11:03:27;;;;;;;2.53;0.90;;;16.90;99.90;;;;;;5076772;28;37668;-76
2023/09/22 11:05:59;;;;;;;2.97;0.90;;;17.00;99.90;;;;;;5057631;28;38447;-77
2023/09/22 11:08:31;;;;;;;3.93;1.20;;;17.20;99.90;;;;;;5079678;28;37761;-77
2023/09/22 11:10:57;;;;;;;3.28;1.10;;;17.60;99.90;;;;;;5071705;28;37253;-78
2023/09/22 11:13:24;;;;;;;9.20;1.63;;;17.60;96.60;;;;;;5062971;28;39643;-78
2023/09/22 11:15:59;;;;;;;2.42;1.05;;;17.60;99.90;;;;;;5059716;28;39728;-79
2023/09/22 11:18:26;;;;;;;2.53;1.42;;;17.60;99.90;;;;;;5075816;28;36517;-79
2023/09/22 11:21:04;;;;;;;7.30;1.00;;;17.80;99.90;;;;;;5074615;28;37872;-79
2023/09/22 11:23:32;;;;;;;2.38;0.70;;;17.50;99.90;;;;;;5061746;28;46827;-79
2023/09/22 11:26:00;;;;;;;2.22;1.10;;;17.40;99.90;;;;;;5079787;28;38581;-80
2023/09/22 11:28:26;;;;;;;5.30;1.17;;;17.30;99.90;;;;;;5077333;28;38889;-75
2023/09/22 11:30:55;;;;;;;1.67;1.00;;;17.30;99.90;;;;;;5062726;28;37282;-75
2023/09/22 11:33:22;;;;;;;4.05;1.10;;;17.30;99.90;;;;;;5046306;28;39458;-75
2023/09/22 11:35:52;;;;;;;3.40;1.33;;;17.40;99.90;;;;;;5074702;28;38163;-77
2023/09/22 11:38:32;;;;;;;3.95;1.27;;;17.50;99.90;;;;;;5079370;28;39123;-78
2023/09/22 11:41:10;;;;;;;3.83;1.10;;;17.30;99.90;;;;;;5084215;28;37946;-77
2023/09/22 11:43:43;;;;;;;2.72;1.20;;;17.30;99.90;;;;;;5074222;28;48788;-77
2023/09/22 11:46:26;;;;;;;2.25;1.42;;;17.30;99.90;;;;;;5074245;28;37959;-75
2023/09/22 11:48:56;;;;;;;3.13;1.25;;;17.20;99.90;;;;;;5063232;28;37934;-76
2023/09/22 11:51:22;;;;;;;4.30;2.45;;;17.10;99.90;;;;;;5063444;28;37138;-78
2023/09/22 11:53:49;;;;;;;2.13;1.30;;;16.90;99.90;;;;;;5084032;28;40024;-77
2023/09/22 11:56:16;;;;;;;2.92;1.60;;;16.90;99.90;;;;;;5074709;28;39444;-77
2023/09/22 11:58:42;;;;;;;5.43;1.35;;;17.10;99.90;;;;;;5078741;28;39016;-76
2023/09/22 12:01:09;;;;;;;4.63;1.48;;;17.00;99.90;;;;;;5077859;28;36159;-77
2023/09/22 12:03:36;;;;;;;2.47;1.70;;;16.90;99.90;;;;;;5058663;28;37476;-76
2023/09/22 12:06:02;;;;;;;2.25;1.30;;;16.90;99.90;;;;;;5057631;28;39771;-77
2023/09/22 12:08:29;;;;;;;4.40;1.70;;;16.90;99.90;;;;;;5077618;28;38342;-76
2023/09/22 12:10:55;;;;;;;5.18;1.88;;;16.90;99.90;;;;;;5084432;28;35457;-76
2023/09/22 12:13:21;;;;;;;3.20;1.60;;;16.90;99.90;;;;;;5074800;28;39464;-75
2023/09/22 12:15:48;;;;;;;3.60;1.27;;;16.80;99.90;;;;;;5058651;28;37159;-75
2023/09/22 12:18:14;;;;;;;3.67;1.85;;;16.90;99.90;;;;;;5063603;28;36808;-77
2023/09/22 12:20:40;;;;;;;2.70;1.30;;;16.90;99.90;;;;;;5075173;28;37045;-75
2023/09/22 12:23:07;;;;;;;2.63;1.10;;;16.80;99.90;;;;;;5079274;28;39468;-85
2023/09/22 12:25:34;;;;;;;2.38;1.25;;;16.70;99.90;;;;;;5067213;28;37142;-77
2023/09/22 12:28:00;;;;;;;4.55;1.40;;;16.60;99.90;;;;;;5073964;28;36850;-76
2023/09/22 12:30:26;;;;;;;2.30;0.80;;;16.60;99.90;;;;;;5071703;28;36121;-76
2023/09/22 12:32:52;;;;;;;1.90;0.85;;;16.60;99.90;;;;;;5079476;28;39013;-77
2023/09/22 12:35:18;;;;;;;2.80;0.82;;;16.60;99.90;;;;;;5060119;28;37292;-74
2023/09/22 12:37:44;;;;;;;5.07;1.25;;;16.50;99.90;;;;;;5084673;28;38261;-75
2023/09/22 12:40:11;;;;;;;3.20;0.88;;;16.50;99.90;;;;;;5064823;28;36217;-75
2023/09/22 12:42:38;;;;;;;5.30;0.93;;;16.50;99.90;;;;;;5078951;28;37945;-76
2023/09/22 12:45:05;;;;;;;3.30;0.80;;;16.50;99.90;;;;;;5088516;28;39493;-79
2023/09/22 12:47:31;;;;;;;4.15;1.08;;;16.50;99.90;;;;;;5073467;28;37924;-77
2023/09/22 12:49:57;;;;;;;2.28;0.80;;;16.50;99.90;;;;;;5087225;28;37203;-77